sensor_id;sensor_type;location;lat;lon;timestamp;P1;durP1;ratioP1;P2;durP2;ratioP2
11827;SDS011;5971;49.646;8.568;2022-10-14T00:01:42;13.27;;;6.40;;
11827;SDS011;5971;49.646;8.568;2022-10-14T00:04:43;13.23;;;6.35;;
11827;SDS011;5971;49.646;8.568;2022-10-14T00:07:45;14.23;;;6.25;;
11827;SDS011;5971;49.646;8.568;2022-10-14T00:10:46;13.90;;;6.30;;
11827;SDS011;5971;49.646;8.568;2022-10-14T00:13:47;12.63;;;6.07;;
11827;SDS011;5971;49.646;8.568;2022-10-14T00:16:51;15.82;;;6.43;;
11827;SDS011;5971;49.646;8.568;2022-10-14T00:19:53;10.63;;;5.90;;
11827;SDS011;5971;49.646;8.568;2022-10-14T00:22:54;13.77;;;6.25;;
11827;SDS011;5971;49.646;8.568;2022-10-14T00:25:55;13.63;;;6.07;;
11827;SDS011;5971;49.646;8.568;2022-10-14T00:28:57;14.13;;;6.30;;
11827;SDS011;5971;49.646;8.568;2022-10-14T00:31:59;12.05;;;5.95;;
11827;SDS011;5971;49.646;8.568;2022-10-14T00:35:00;13.15;;;5.97;;
11827;SDS011;5971;49.646;8.568;2022-10-14T00:38:01;16.40;;;6.68;;
11827;SDS011;5971;49.646;8.568;2022-10-14T00:41:03;14.13;;;6.47;;
11827;SDS011;5971;49.646;8.568;2022-10-14T00:47:14;11.07;;;5.57;;
11827;SDS011;5971;49.646;8.568;2022-10-14T00:50:16;17.70;;;6.47;;
11827;SDS011;5971;49.646;8.568;2022-10-14T00:53:18;12.90;;;5.88;;
11827;SDS011;5971;49.646;8.568;2022-10-14T00:56:21;14.13;;;6.53;;
11827;SDS011;5971;49.646;8.568;2022-10-14T00:59:23;15.80;;;6.63;;
11827;SDS011;5971;49.646;8.568;2022-10-14T01:02:24;12.00;;;5.82;;
11827;SDS011;5971;49.646;8.568;2022-10-14T01:05:30;14.82;;;6.47;;
11827;SDS011;5971;49.646;8.568;2022-10-14T01:21:20;13.88;;;6.22;;
11827;SDS011;5971;49.646;8.568;2022-10-14T01:24:35;13.25;;;6.70;;
11827;SDS011;5971;49.646;8.568;2022-10-14T01:30:43;11.85;;;5.43;;
11827;SDS011;5971;49.646;8.568;2022-10-14T01:33:45;15.00;;;6.63;;
11827;SDS011;5971;49.646;8.568;2022-10-14T01:36:49;13.23;;;6.10;;
11827;SDS011;5971;49.646;8.568;2022-10-14T01:39:54;11.43;;;5.72;;
11827;SDS011;5971;49.646;8.568;2022-10-14T01:45:58;16.38;;;5.15;;
11827;SDS011;5971;49.646;8.568;2022-10-14T01:49:01;9.55;;;5.35;;
11827;SDS011;5971;49.646;8.568;2022-10-14T01:52:05;12.38;;;6.25;;
11827;SDS011;5971;49.646;8.568;2022-10-14T01:55:08;12.35;;;5.68;;
11827;SDS011;5971;49.646;8.568;2022-10-14T01:58:12;12.07;;;5.95;;
11827;SDS011;5971;49.646;8.568;2022-10-14T02:01:14;11.95;;;5.55;;
11827;SDS011;5971;49.646;8.568;2022-10-14T02:04:17;10.38;;;5.05;;
11827;SDS011;5971;49.646;8.568;2022-10-14T02:07:23;10.25;;;5.15;;
11827;SDS011;5971;49.646;8.568;2022-10-14T02:16:56;12.93;;;6.28;;
11827;SDS011;5971;49.646;8.568;2022-10-14T02:20:02;12.98;;;5.22;;
11827;SDS011;5971;49.646;8.568;2022-10-14T02:23:07;11.18;;;5.55;;
11827;SDS011;5971;49.646;8.568;2022-10-14T02:26:09;9.57;;;5.18;;
11827;SDS011;5971;49.646;8.568;2022-10-14T02:29:11;12.38;;;4.95;;
11827;SDS011;5971;49.646;8.568;2022-10-14T02:32:13;10.05;;;5.57;;
11827;SDS011;5971;49.646;8.568;2022-10-14T02:35:15;9.38;;;5.13;;
11827;SDS011;5971;49.646;8.568;2022-10-14T02:38:18;9.20;;;5.53;;
11827;SDS011;5971;49.646;8.568;2022-10-14T02:41:20;9.30;;;5.05;;
11827;SDS011;5971;49.646;8.568;2022-10-14T02:44:23;10.45;;;5.55;;
11827;SDS011;5971;49.646;8.568;2022-10-14T02:47:24;10.13;;;4.63;;
11827;SDS011;5971;49.646;8.568;2022-10-14T02:50:25;10.57;;;4.82;;
11827;SDS011;5971;49.646;8.568;2022-10-14T02:53:27;13.27;;;6.22;;
11827;SDS011;5971;49.646;8.568;2022-10-14T02:56:28;10.55;;;4.75;;
11827;SDS011;5971;49.646;8.568;2022-10-14T02:59:29;10.93;;;5.35;;
11827;SDS011;5971;49.646;8.568;2022-10-14T03:02:31;8.82;;;4.53;;
11827;SDS011;5971;49.646;8.568;2022-10-14T03:05:32;9.50;;;4.30;;
11827;SDS011;5971;49.646;8.568;2022-10-14T03:08:33;12.13;;;5.13;;
11827;SDS011;5971;49.646;8.568;2022-10-14T03:11:35;12.52;;;5.72;;
11827;SDS011;5971;49.646;8.568;2022-10-14T03:14:36;11.25;;;4.68;;
11827;SDS011;5971;49.646;8.568;2022-10-14T03:17:37;12.43;;;6.00;;
11827;SDS011;5971;49.646;8.568;2022-10-14T03:20:38;13.13;;;5.78;;
11827;SDS011;5971;49.646;8.568;2022-10-14T03:23:40;10.65;;;5.53;;
11827;SDS011;5971;49.646;8.568;2022-10-14T03:26:41;10.38;;;5.72;;
11827;SDS011;5971;49.646;8.568;2022-10-14T03:29:42;11.38;;;5.18;;
11827;SDS011;5971;49.646;8.568;2022-10-14T03:32:43;11.52;;;5.03;;
11827;SDS011;5971;49.646;8.568;2022-10-14T03:35:45;12.25;;;5.55;;
11827;SDS011;5971;49.646;8.568;2022-10-14T03:38:46;10.45;;;5.78;;
11827;SDS011;5971;49.646;8.568;2022-10-14T03:41:47;9.13;;;4.90;;
11827;SDS011;5971;49.646;8.568;2022-10-14T03:44:48;11.68;;;5.28;;
11827;SDS011;5971;49.646;8.568;2022-10-14T03:47:50;10.85;;;5.80;;
11827;SDS011;5971;49.646;8.568;2022-10-14T03:50:51;13.63;;;6.03;;
11827;SDS011;5971;49.646;8.568;2022-10-14T03:53:52;13.10;;;6.43;;
11827;SDS011;5971;49.646;8.568;2022-10-14T03:56:53;12.10;;;6.20;;
11827;SDS011;5971;49.646;8.568;2022-10-14T03:59:55;14.52;;;6.00;;
11827;SDS011;5971;49.646;8.568;2022-10-14T04:02:56;13.35;;;5.72;;
11827;SDS011;5971;49.646;8.568;2022-10-14T04:05:57;13.65;;;6.40;;
11827;SDS011;5971;49.646;8.568;2022-10-14T04:08:58;13.60;;;6.15;;
11827;SDS011;5971;49.646;8.568;2022-10-14T04:12:00;13.50;;;6.18;;
11827;SDS011;5971;49.646;8.568;2022-10-14T04:15:01;11.70;;;5.95;;
11827;SDS011;5971;49.646;8.568;2022-10-14T04:18:02;13.32;;;6.68;;
11827;SDS011;5971;49.646;8.568;2022-10-14T04:21:05;12.18;;;5.65;;
11827;SDS011;5971;49.646;8.568;2022-10-14T04:24:06;12.77;;;6.25;;
11827;SDS011;5971;49.646;8.568;2022-10-14T04:27:08;14.57;;;6.93;;
11827;SDS011;5971;49.646;8.568;2022-10-14T04:30:10;13.40;;;6.25;;
11827;SDS011;5971;49.646;8.568;2022-10-14T04:33:12;19.20;;;7.25;;
11827;SDS011;5971;49.646;8.568;2022-10-14T04:36:13;11.75;;;5.40;;
11827;SDS011;5971;49.646;8.568;2022-10-14T04:39:14;13.55;;;6.28;;
11827;SDS011;5971;49.646;8.568;2022-10-14T04:42:15;13.27;;;5.97;;
11827;SDS011;5971;49.646;8.568;2022-10-14T04:45:17;12.23;;;5.35;;
11827;SDS011;5971;49.646;8.568;2022-10-14T04:48:18;9.52;;;5.35;;
11827;SDS011;5971;49.646;8.568;2022-10-14T04:51:19;16.75;;;7.22;;
11827;SDS011;5971;49.646;8.568;2022-10-14T04:54:21;15.02;;;6.60;;
11827;SDS011;5971;49.646;8.568;2022-10-14T04:57:23;16.58;;;6.90;;
11827;SDS011;5971;49.646;8.568;2022-10-14T05:00:24;12.70;;;6.50;;
11827;SDS011;5971;49.646;8.568;2022-10-14T05:03:25;12.82;;;5.60;;
11827;SDS011;5971;49.646;8.568;2022-10-14T05:06:27;12.57;;;5.78;;
11827;SDS011;5971;49.646;8.568;2022-10-14T05:09:28;12.07;;;6.82;;
11827;SDS011;5971;49.646;8.568;2022-10-14T05:12:30;13.68;;;6.68;;
11827;SDS011;5971;49.646;8.568;2022-10-14T05:15:31;15.40;;;6.50;;
11827;SDS011;5971;49.646;8.568;2022-10-14T05:18:33;15.30;;;6.40;;
11827;SDS011;5971;49.646;8.568;2022-10-14T05:21:34;15.38;;;7.30;;
11827;SDS011;5971;49.646;8.568;2022-10-14T05:24:36;20.40;;;7.35;;
11827;SDS011;5971;49.646;8.568;2022-10-14T05:27:37;16.58;;;7.25;;
11827;SDS011;5971;49.646;8.568;2022-10-14T05:30:39;15.63;;;6.05;;
11827;SDS011;5971;49.646;8.568;2022-10-14T05:33:40;12.38;;;6.05;;
11827;SDS011;5971;49.646;8.568;2022-10-14T05:36:41;16.52;;;7.25;;
11827;SDS011;5971;49.646;8.568;2022-10-14T05:39:43;15.75;;;6.88;;
11827;SDS011;5971;49.646;8.568;2022-10-14T05:42:44;15.80;;;7.15;;
11827;SDS011;5971;49.646;8.568;2022-10-14T05:45:45;14.02;;;6.22;;
11827;SDS011;5971;49.646;8.568;2022-10-14T05:48:47;15.25;;;6.80;;
11827;SDS011;5971;49.646;8.568;2022-10-14T05:51:48;15.93;;;7.03;;
11827;SDS011;5971;49.646;8.568;2022-10-14T05:54:49;15.02;;;8.02;;
11827;SDS011;5971;49.646;8.568;2022-10-14T05:57:54;16.83;;;7.70;;
11827;SDS011;5971;49.646;8.568;2022-10-14T06:00:58;12.73;;;6.78;;
11827;SDS011;5971;49.646;8.568;2022-10-14T06:03:59;15.18;;;6.72;;
11827;SDS011;5971;49.646;8.568;2022-10-14T06:07:00;12.70;;;7.25;;
11827;SDS011;5971;49.646;8.568;2022-10-14T06:10:03;11.55;;;6.35;;
11827;SDS011;5971;49.646;8.568;2022-10-14T06:13:04;16.25;;;7.82;;
11827;SDS011;5971;49.646;8.568;2022-10-14T06:16:06;23.80;;;11.05;;
11827;SDS011;5971;49.646;8.568;2022-10-14T06:19:08;21.90;;;10.27;;
11827;SDS011;5971;49.646;8.568;2022-10-14T06:22:09;18.33;;;8.93;;
11827;SDS011;5971;49.646;8.568;2022-10-14T06:25:11;20.52;;;9.52;;
11827;SDS011;5971;49.646;8.568;2022-10-14T06:28:13;15.23;;;7.57;;
11827;SDS011;5971;49.646;8.568;2022-10-14T06:31:14;15.32;;;6.18;;
11827;SDS011;5971;49.646;8.568;2022-10-14T06:34:15;13.93;;;6.70;;
11827;SDS011;5971;49.646;8.568;2022-10-14T06:37:17;15.52;;;6.82;;
11827;SDS011;5971;49.646;8.568;2022-10-14T06:40:18;15.05;;;7.10;;
11827;SDS011;5971;49.646;8.568;2022-10-14T06:43:20;13.63;;;5.53;;
11827;SDS011;5971;49.646;8.568;2022-10-14T06:46:21;11.32;;;5.22;;
11827;SDS011;5971;49.646;8.568;2022-10-14T06:49:24;12.85;;;5.28;;
11827;SDS011;5971;49.646;8.568;2022-10-14T06:52:26;12.57;;;6.22;;
11827;SDS011;5971;49.646;8.568;2022-10-14T06:55:27;15.93;;;6.63;;
11827;SDS011;5971;49.646;8.568;2022-10-14T06:58:28;13.10;;;6.55;;
11827;SDS011;5971;49.646;8.568;2022-10-14T07:01:30;15.38;;;6.47;;
11827;SDS011;5971;49.646;8.568;2022-10-14T07:04:31;14.20;;;6.65;;
11827;SDS011;5971;49.646;8.568;2022-10-14T07:07:32;12.70;;;6.82;;
11827;SDS011;5971;49.646;8.568;2022-10-14T07:10:34;13.52;;;5.82;;
11827;SDS011;5971;49.646;8.568;2022-10-14T07:13:35;12.95;;;6.22;;
11827;SDS011;5971;49.646;8.568;2022-10-14T07:16:37;13.30;;;6.28;;
11827;SDS011;5971;49.646;8.568;2022-10-14T07:19:39;12.13;;;6.22;;
11827;SDS011;5971;49.646;8.568;2022-10-14T07:22:40;11.70;;;5.65;;
11827;SDS011;5971;49.646;8.568;2022-10-14T07:25:41;16.08;;;5.43;;
11827;SDS011;5971;49.646;8.568;2022-10-14T07:28:43;12.60;;;6.00;;
11827;SDS011;5971;49.646;8.568;2022-10-14T07:31:44;13.73;;;6.80;;
11827;SDS011;5971;49.646;8.568;2022-10-14T07:34:47;12.10;;;4.63;;
11827;SDS011;5971;49.646;8.568;2022-10-14T07:37:48;9.75;;;4.75;;
11827;SDS011;5971;49.646;8.568;2022-10-14T07:41:10;13.85;;;5.18;;
11827;SDS011;5971;49.646;8.568;2022-10-14T07:44:17;11.38;;;5.15;;
11827;SDS011;5971;49.646;8.568;2022-10-14T07:47:20;10.57;;;5.88;;
11827;SDS011;5971;49.646;8.568;2022-10-14T07:50:22;9.70;;;4.97;;
11827;SDS011;5971;49.646;8.568;2022-10-14T07:53:24;10.38;;;5.20;;
11827;SDS011;5971;49.646;8.568;2022-10-14T07:56:25;8.77;;;4.63;;
11827;SDS011;5971;49.646;8.568;2022-10-14T07:59:27;11.35;;;5.28;;
11827;SDS011;5971;49.646;8.568;2022-10-14T08:02:28;9.20;;;4.93;;
11827;SDS011;5971;49.646;8.568;2022-10-14T08:05:30;10.57;;;4.80;;
11827;SDS011;5971;49.646;8.568;2022-10-14T08:08:39;12.43;;;5.38;;
11827;SDS011;5971;49.646;8.568;2022-10-14T08:11:40;10.32;;;4.50;;
11827;SDS011;5971;49.646;8.568;2022-10-14T08:14:42;9.00;;;5.05;;
11827;SDS011;5971;49.646;8.568;2022-10-14T08:17:44;10.77;;;4.88;;
11827;SDS011;5971;49.646;8.568;2022-10-14T08:20:45;8.93;;;4.90;;
11827;SDS011;5971;49.646;8.568;2022-10-14T08:23:47;9.88;;;4.65;;
11827;SDS011;5971;49.646;8.568;2022-10-14T08:26:49;9.77;;;5.70;;
11827;SDS011;5971;49.646;8.568;2022-10-14T08:29:51;8.63;;;4.47;;
11827;SDS011;5971;49.646;8.568;2022-10-14T08:32:52;15.00;;;5.72;;
11827;SDS011;5971;49.646;8.568;2022-10-14T08:35:53;11.63;;;5.38;;
11827;SDS011;5971;49.646;8.568;2022-10-14T08:38:55;9.93;;;4.72;;
11827;SDS011;5971;49.646;8.568;2022-10-14T08:42:04;9.95;;;5.03;;
11827;SDS011;5971;49.646;8.568;2022-10-14T08:45:13;8.95;;;4.68;;
11827;SDS011;5971;49.646;8.568;2022-10-14T08:48:17;10.80;;;5.07;;
11827;SDS011;5971;49.646;8.568;2022-10-14T08:51:19;8.52;;;4.63;;
11827;SDS011;5971;49.646;8.568;2022-10-14T08:54:24;9.60;;;5.03;;
11827;SDS011;5971;49.646;8.568;2022-10-14T08:57:29;9.10;;;4.28;;
11827;SDS011;5971;49.646;8.568;2022-10-14T09:00:31;8.82;;;4.85;;
11827;SDS011;5971;49.646;8.568;2022-10-14T09:03:33;12.95;;;5.45;;
11827;SDS011;5971;49.646;8.568;2022-10-14T09:06:37;8.60;;;4.22;;
11827;SDS011;5971;49.646;8.568;2022-10-14T09:09:40;9.00;;;4.93;;
11827;SDS011;5971;49.646;8.568;2022-10-14T09:12:43;8.77;;;4.82;;
11827;SDS011;5971;49.646;8.568;2022-10-14T09:15:46;11.15;;;6.03;;
11827;SDS011;5971;49.646;8.568;2022-10-14T09:18:49;10.35;;;4.88;;
11827;SDS011;5971;49.646;8.568;2022-10-14T09:21:55;10.70;;;5.28;;
11827;SDS011;5971;49.646;8.568;2022-10-14T09:24:56;14.80;;;6.28;;
11827;SDS011;5971;49.646;8.568;2022-10-14T09:27:58;13.20;;;5.28;;
11827;SDS011;5971;49.646;8.568;2022-10-14T09:30:59;10.15;;;4.75;;
11827;SDS011;5971;49.646;8.568;2022-10-14T09:34:01;9.82;;;5.30;;
11827;SDS011;5971;49.646;8.568;2022-10-14T09:37:07;9.80;;;5.57;;
11827;SDS011;5971;49.646;8.568;2022-10-14T09:43:14;8.95;;;4.63;;
11827;SDS011;5971;49.646;8.568;2022-10-14T09:46:16;7.22;;;4.20;;
11827;SDS011;5971;49.646;8.568;2022-10-14T09:49:19;12.70;;;4.20;;
11827;SDS011;5971;49.646;8.568;2022-10-14T09:52:23;14.20;;;6.32;;
11827;SDS011;5971;49.646;8.568;2022-10-14T09:55:25;13.60;;;4.82;;
11827;SDS011;5971;49.646;8.568;2022-10-14T10:01:36;9.70;;;4.05;;
11827;SDS011;5971;49.646;8.568;2022-10-14T10:04:41;13.27;;;5.60;;
11827;SDS011;5971;49.646;8.568;2022-10-14T10:07:58;9.40;;;5.13;;
11827;SDS011;5971;49.646;8.568;2022-10-14T10:11:06;5.63;;;3.53;;
11827;SDS011;5971;49.646;8.568;2022-10-14T10:14:23;6.10;;;3.55;;
11827;SDS011;5971;49.646;8.568;2022-10-14T10:17:25;7.40;;;3.50;;
11827;SDS011;5971;49.646;8.568;2022-10-14T10:20:28;5.22;;;2.55;;
11827;SDS011;5971;49.646;8.568;2022-10-14T10:23:34;5.45;;;2.88;;
11827;SDS011;5971;49.646;8.568;2022-10-14T10:26:36;4.47;;;2.67;;
11827;SDS011;5971;49.646;8.568;2022-10-14T10:29:37;4.18;;;2.40;;
11827;SDS011;5971;49.646;8.568;2022-10-14T10:32:40;7.13;;;2.35;;
11827;SDS011;5971;49.646;8.568;2022-10-14T10:39:02;5.07;;;2.67;;
11827;SDS011;5971;49.646;8.568;2022-10-14T10:42:15;5.68;;;3.08;;
11827;SDS011;5971;49.646;8.568;2022-10-14T10:48:36;5.05;;;2.40;;
11827;SDS011;5971;49.646;8.568;2022-10-14T10:54:47;4.70;;;2.45;;
11827;SDS011;5971;49.646;8.568;2022-10-14T11:01:18;6.90;;;3.03;;
11827;SDS011;5971;49.646;8.568;2022-10-14T11:04:33;4.65;;;2.67;;
11827;SDS011;5971;49.646;8.568;2022-10-14T11:11:13;5.60;;;2.50;;
11827;SDS011;5971;49.646;8.568;2022-10-14T11:20:59;6.22;;;2.70;;
11827;SDS011;5971;49.646;8.568;2022-10-14T11:24:08;4.65;;;2.80;;
11827;SDS011;5971;49.646;8.568;2022-10-14T11:27:16;6.40;;;2.38;;
11827;SDS011;5971;49.646;8.568;2022-10-14T11:39:39;5.70;;;3.15;;
11827;SDS011;5971;49.646;8.568;2022-10-14T11:49:21;8.43;;;3.50;;
11827;SDS011;5971;49.646;8.568;2022-10-14T11:52:29;5.93;;;2.85;;
11827;SDS011;5971;49.646;8.568;2022-10-14T11:55:33;9.45;;;3.42;;
11827;SDS011;5971;49.646;8.568;2022-10-14T11:58:39;8.27;;;3.65;;
11827;SDS011;5971;49.646;8.568;2022-10-14T12:01:41;7.25;;;3.00;;
11827;SDS011;5971;49.646;8.568;2022-10-14T12:04:45;7.50;;;4.55;;
11827;SDS011;5971;49.646;8.568;2022-10-14T12:11:33;7.82;;;4.30;;
11827;SDS011;5971;49.646;8.568;2022-10-14T12:14:41;6.72;;;2.95;;
11827;SDS011;5971;49.646;8.568;2022-10-14T12:17:45;8.73;;;3.08;;
11827;SDS011;5971;49.646;8.568;2022-10-14T12:20:58;5.47;;;2.88;;
11827;SDS011;5971;49.646;8.568;2022-10-14T12:24:12;5.30;;;2.92;;
11827;SDS011;5971;49.646;8.568;2022-10-14T12:27:15;5.78;;;2.70;;
11827;SDS011;5971;49.646;8.568;2022-10-14T12:30:30;6.68;;;2.72;;
11827;SDS011;5971;49.646;8.568;2022-10-14T12:33:32;5.97;;;3.55;;
11827;SDS011;5971;49.646;8.568;2022-10-14T12:36:53;5.53;;;2.88;;
11827;SDS011;5971;49.646;8.568;2022-10-14T12:43:13;5.03;;;3.17;;
11827;SDS011;5971;49.646;8.568;2022-10-14T12:46:15;5.63;;;2.95;;
11827;SDS011;5971;49.646;8.568;2022-10-14T12:49:26;4.78;;;2.92;;
11827;SDS011;5971;49.646;8.568;2022-10-14T12:52:29;5.75;;;2.90;;
11827;SDS011;5971;49.646;8.568;2022-10-14T12:55:32;6.45;;;2.75;;
11827;SDS011;5971;49.646;8.568;2022-10-14T12:58:37;5.88;;;3.00;;
11827;SDS011;5971;49.646;8.568;2022-10-14T13:01:41;7.25;;;3.58;;
11827;SDS011;5971;49.646;8.568;2022-10-14T13:04:50;5.38;;;2.88;;
11827;SDS011;5971;49.646;8.568;2022-10-14T13:11:12;6.32;;;3.63;;
11827;SDS011;5971;49.646;8.568;2022-10-14T13:14:25;6.45;;;3.15;;
11827;SDS011;5971;49.646;8.568;2022-10-14T13:17:43;5.22;;;2.90;;
11827;SDS011;5971;49.646;8.568;2022-10-14T13:23:48;6.50;;;3.67;;
11827;SDS011;5971;49.646;8.568;2022-10-14T13:36:35;6.18;;;3.03;;
11827;SDS011;5971;49.646;8.568;2022-10-14T13:39:37;5.65;;;2.83;;
11827;SDS011;5971;49.646;8.568;2022-10-14T13:42:39;7.13;;;2.90;;
11827;SDS011;5971;49.646;8.568;2022-10-14T13:49:01;5.25;;;2.90;;
11827;SDS011;5971;49.646;8.568;2022-10-14T13:52:04;5.50;;;2.78;;
11827;SDS011;5971;49.646;8.568;2022-10-14T13:58:14;5.88;;;2.72;;
11827;SDS011;5971;49.646;8.568;2022-10-14T14:01:17;5.85;;;3.10;;
11827;SDS011;5971;49.646;8.568;2022-10-14T14:04:24;6.68;;;2.75;;
11827;SDS011;5971;49.646;8.568;2022-10-14T14:07:29;6.53;;;3.47;;
11827;SDS011;5971;49.646;8.568;2022-10-14T14:10:58;6.13;;;3.00;;
11827;SDS011;5971;49.646;8.568;2022-10-14T14:14:21;4.80;;;2.70;;
11827;SDS011;5971;49.646;8.568;2022-10-14T14:17:22;11.55;;;3.33;;
11827;SDS011;5971;49.646;8.568;2022-10-14T14:20:25;5.30;;;2.90;;
11827;SDS011;5971;49.646;8.568;2022-10-14T14:23:29;5.53;;;2.88;;
11827;SDS011;5971;49.646;8.568;2022-10-14T14:26:37;4.43;;;2.92;;
11827;SDS011;5971;49.646;8.568;2022-10-14T14:29:40;4.78;;;2.38;;
11827;SDS011;5971;49.646;8.568;2022-10-14T14:32:42;3.92;;;2.33;;
11827;SDS011;5971;49.646;8.568;2022-10-14T14:35:54;5.68;;;3.05;;
11827;SDS011;5971;49.646;8.568;2022-10-14T14:38:58;5.00;;;2.58;;
11827;SDS011;5971;49.646;8.568;2022-10-14T14:45:03;5.25;;;3.35;;
11827;SDS011;5971;49.646;8.568;2022-10-14T14:48:06;5.57;;;3.10;;
11827;SDS011;5971;49.646;8.568;2022-10-14T14:51:08;4.95;;;2.75;;
11827;SDS011;5971;49.646;8.568;2022-10-14T14:54:17;4.80;;;3.72;;
11827;SDS011;5971;49.646;8.568;2022-10-14T14:57:19;4.60;;;2.22;;
11827;SDS011;5971;49.646;8.568;2022-10-14T15:00:22;8.55;;;3.20;;
11827;SDS011;5971;49.646;8.568;2022-10-14T15:03:26;5.50;;;3.00;;
11827;SDS011;5971;49.646;8.568;2022-10-14T15:06:28;6.30;;;2.83;;
11827;SDS011;5971;49.646;8.568;2022-10-14T15:12:37;5.13;;;2.88;;
11827;SDS011;5971;49.646;8.568;2022-10-14T15:15:50;5.40;;;2.88;;
11827;SDS011;5971;49.646;8.568;2022-10-14T15:19:10;6.40;;;3.13;;
11827;SDS011;5971;49.646;8.568;2022-10-14T15:28:28;6.28;;;3.22;;
11827;SDS011;5971;49.646;8.568;2022-10-14T15:31:30;5.13;;;2.97;;
11827;SDS011;5971;49.646;8.568;2022-10-14T15:34:32;5.53;;;3.55;;
11827;SDS011;5971;49.646;8.568;2022-10-14T15:37:35;6.78;;;3.40;;
11827;SDS011;5971;49.646;8.568;2022-10-14T15:40:37;6.38;;;3.63;;
11827;SDS011;5971;49.646;8.568;2022-10-14T15:43:38;6.38;;;3.70;;
11827;SDS011;5971;49.646;8.568;2022-10-14T15:46:40;6.85;;;3.53;;
11827;SDS011;5971;49.646;8.568;2022-10-14T15:50:04;7.18;;;3.47;;
11827;SDS011;5971;49.646;8.568;2022-10-14T15:53:06;6.82;;;3.83;;
11827;SDS011;5971;49.646;8.568;2022-10-14T15:56:09;6.35;;;3.22;;
11827;SDS011;5971;49.646;8.568;2022-10-14T15:59:10;7.72;;;3.72;;
11827;SDS011;5971;49.646;8.568;2022-10-14T16:02:20;8.18;;;3.80;;
11827;SDS011;5971;49.646;8.568;2022-10-14T16:05:23;7.32;;;3.55;;
11827;SDS011;5971;49.646;8.568;2022-10-14T16:08:24;7.18;;;3.58;;
11827;SDS011;5971;49.646;8.568;2022-10-14T16:11:27;9.05;;;3.33;;
11827;SDS011;5971;49.646;8.568;2022-10-14T16:14:29;5.82;;;3.55;;
11827;SDS011;5971;49.646;8.568;2022-10-14T16:17:30;6.22;;;3.13;;
11827;SDS011;5971;49.646;8.568;2022-10-14T16:20:32;5.40;;;3.25;;
11827;SDS011;5971;49.646;8.568;2022-10-14T16:23:33;7.10;;;3.15;;
11827;SDS011;5971;49.646;8.568;2022-10-14T16:26:35;7.00;;;3.10;;
11827;SDS011;5971;49.646;8.568;2022-10-14T16:29:38;6.18;;;3.30;;
11827;SDS011;5971;49.646;8.568;2022-10-14T16:32:39;6.15;;;3.20;;
11827;SDS011;5971;49.646;8.568;2022-10-14T16:35:41;7.03;;;3.63;;
11827;SDS011;5971;49.646;8.568;2022-10-14T16:38:42;6.90;;;4.18;;
11827;SDS011;5971;49.646;8.568;2022-10-14T16:41:44;5.10;;;2.65;;
11827;SDS011;5971;49.646;8.568;2022-10-14T16:44:45;6.35;;;3.90;;
11827;SDS011;5971;49.646;8.568;2022-10-14T16:47:46;5.55;;;3.47;;
11827;SDS011;5971;49.646;8.568;2022-10-14T16:50:48;5.82;;;3.30;;
11827;SDS011;5971;49.646;8.568;2022-10-14T16:53:50;6.07;;;3.42;;
11827;SDS011;5971;49.646;8.568;2022-10-14T16:56:52;5.50;;;2.90;;
11827;SDS011;5971;49.646;8.568;2022-10-14T16:59:53;5.13;;;2.63;;
11827;SDS011;5971;49.646;8.568;2022-10-14T17:02:54;4.55;;;2.95;;
11827;SDS011;5971;49.646;8.568;2022-10-14T17:05:56;5.68;;;2.97;;
11827;SDS011;5971;49.646;8.568;2022-10-14T17:08:58;5.30;;;3.05;;
11827;SDS011;5971;49.646;8.568;2022-10-14T17:12:03;5.95;;;3.60;;
11827;SDS011;5971;49.646;8.568;2022-10-14T17:15:09;5.68;;;2.85;;
11827;SDS011;5971;49.646;8.568;2022-10-14T17:18:11;5.70;;;2.83;;
11827;SDS011;5971;49.646;8.568;2022-10-14T17:21:18;5.30;;;3.00;;
11827;SDS011;5971;49.646;8.568;2022-10-14T17:24:19;8.25;;;3.85;;
11827;SDS011;5971;49.646;8.568;2022-10-14T17:27:20;7.35;;;4.13;;
11827;SDS011;5971;49.646;8.568;2022-10-14T17:30:24;6.30;;;3.13;;
11827;SDS011;5971;49.646;8.568;2022-10-14T17:33:25;6.72;;;3.50;;
11827;SDS011;5971;49.646;8.568;2022-10-14T17:36:27;5.72;;;3.15;;
11827;SDS011;5971;49.646;8.568;2022-10-14T17:39:28;6.47;;;4.07;;
11827;SDS011;5971;49.646;8.568;2022-10-14T17:42:30;6.53;;;2.72;;
11827;SDS011;5971;49.646;8.568;2022-10-14T17:45:31;5.63;;;2.80;;
11827;SDS011;5971;49.646;8.568;2022-10-14T17:48:33;5.22;;;2.67;;
11827;SDS011;5971;49.646;8.568;2022-10-14T17:51:35;4.57;;;2.63;;
11827;SDS011;5971;49.646;8.568;2022-10-14T17:54:37;6.70;;;3.00;;
11827;SDS011;5971;49.646;8.568;2022-10-14T17:57:38;5.55;;;2.90;;
11827;SDS011;5971;49.646;8.568;2022-10-14T18:00:39;4.97;;;2.50;;
11827;SDS011;5971;49.646;8.568;2022-10-14T18:03:41;6.93;;;2.97;;
11827;SDS011;5971;49.646;8.568;2022-10-14T18:06:43;6.20;;;3.78;;
11827;SDS011;5971;49.646;8.568;2022-10-14T18:09:45;5.88;;;3.55;;
11827;SDS011;5971;49.646;8.568;2022-10-14T18:12:47;6.95;;;4.18;;
11827;SDS011;5971;49.646;8.568;2022-10-14T18:15:48;5.30;;;3.40;;
11827;SDS011;5971;49.646;8.568;2022-10-14T18:18:50;5.82;;;3.97;;
11827;SDS011;5971;49.646;8.568;2022-10-14T18:21:51;8.10;;;4.10;;
11827;SDS011;5971;49.646;8.568;2022-10-14T18:24:53;5.78;;;2.78;;
11827;SDS011;5971;49.646;8.568;2022-10-14T18:27:54;7.55;;;3.50;;
11827;SDS011;5971;49.646;8.568;2022-10-14T18:30:56;7.50;;;2.70;;
11827;SDS011;5971;49.646;8.568;2022-10-14T18:33:58;5.78;;;3.53;;
11827;SDS011;5971;49.646;8.568;2022-10-14T18:37:00;6.97;;;3.08;;
11827;SDS011;5971;49.646;8.568;2022-10-14T18:40:03;5.35;;;2.75;;
11827;SDS011;5971;49.646;8.568;2022-10-14T18:43:04;6.82;;;3.03;;
11827;SDS011;5971;49.646;8.568;2022-10-14T18:46:08;6.57;;;3.70;;
11827;SDS011;5971;49.646;8.568;2022-10-14T18:49:11;6.70;;;3.22;;
11827;SDS011;5971;49.646;8.568;2022-10-14T18:52:13;5.00;;;3.20;;
11827;SDS011;5971;49.646;8.568;2022-10-14T18:55:14;5.93;;;3.00;;
11827;SDS011;5971;49.646;8.568;2022-10-14T18:58:16;6.38;;;3.88;;
11827;SDS011;5971;49.646;8.568;2022-10-14T19:01:18;7.90;;;3.58;;
11827;SDS011;5971;49.646;8.568;2022-10-14T19:04:21;4.03;;;2.10;;
11827;SDS011;5971;49.646;8.568;2022-10-14T19:07:23;2.72;;;1.58;;
11827;SDS011;5971;49.646;8.568;2022-10-14T19:10:26;6.53;;;2.17;;
11827;SDS011;5971;49.646;8.568;2022-10-14T19:13:28;5.07;;;2.30;;
11827;SDS011;5971;49.646;8.568;2022-10-14T19:16:30;3.42;;;1.88;;
11827;SDS011;5971;49.646;8.568;2022-10-14T19:19:32;6.53;;;1.58;;
11827;SDS011;5971;49.646;8.568;2022-10-14T19:22:34;3.40;;;1.98;;
11827;SDS011;5971;49.646;8.568;2022-10-14T19:25:37;3.10;;;1.65;;
11827;SDS011;5971;49.646;8.568;2022-10-14T19:28:40;2.45;;;1.60;;
11827;SDS011;5971;49.646;8.568;2022-10-14T19:31:42;3.50;;;2.17;;
11827;SDS011;5971;49.646;8.568;2022-10-14T19:34:44;1.98;;;1.13;;
11827;SDS011;5971;49.646;8.568;2022-10-14T19:37:47;2.67;;;1.63;;
11827;SDS011;5971;49.646;8.568;2022-10-14T19:40:48;2.97;;;1.98;;
11827;SDS011;5971;49.646;8.568;2022-10-14T19:43:50;2.90;;;1.88;;
11827;SDS011;5971;49.646;8.568;2022-10-14T19:46:53;3.13;;;1.50;;
11827;SDS011;5971;49.646;8.568;2022-10-14T19:49:55;3.47;;;1.80;;
11827;SDS011;5971;49.646;8.568;2022-10-14T19:52:56;3.38;;;1.77;;
11827;SDS011;5971;49.646;8.568;2022-10-14T19:56:05;4.80;;;2.20;;
11827;SDS011;5971;49.646;8.568;2022-10-14T19:59:06;3.80;;;2.03;;
11827;SDS011;5971;49.646;8.568;2022-10-14T20:02:08;3.72;;;1.98;;
11827;SDS011;5971;49.646;8.568;2022-10-14T20:05:09;4.28;;;2.85;;
11827;SDS011;5971;49.646;8.568;2022-10-14T20:08:11;4.20;;;2.53;;
11827;SDS011;5971;49.646;8.568;2022-10-14T20:11:13;4.18;;;2.95;;
11827;SDS011;5971;49.646;8.568;2022-10-14T20:14:15;7.55;;;2.20;;
11827;SDS011;5971;49.646;8.568;2022-10-14T20:17:18;4.32;;;3.03;;
11827;SDS011;5971;49.646;8.568;2022-10-14T20:20:24;3.78;;;1.65;;
11827;SDS011;5971;49.646;8.568;2022-10-14T20:23:26;3.58;;;1.88;;
11827;SDS011;5971;49.646;8.568;2022-10-14T20:26:27;4.28;;;2.05;;
11827;SDS011;5971;49.646;8.568;2022-10-14T20:29:28;3.92;;;2.28;;